KPHX/PHX METAR and TAF weather

Enter ICAO airport designator
Station Type Date Time Source
KPHX METAR 2022/06/25 22:51 UTC NOAA

KPHX 252251Z 30008KT 10SM FEW090 SCT160 SCT250 41/09 A2978 RMK AO2 SLP061 CB DSNT N-NE AND S AND W-NW T04110089 $


Station Type Date Time Source
KPHX Decoded METAR 2022/06/25 22:51 UTC NOAA

Phoenix, Phoenix Sky Harbor International Airport, AZ, United States (KPHX) 33-26-03N 112-03-04W 336M
Jun 25, 2022 - 06:51 PM EDT / 2022.06.25 2251 UTC
Wind: from the WNW (300 degrees) at 9 MPH (8 KT):0
Visibility: 10 mile(s):0
Sky conditions: partly cloudy
Weather: Cumulonimbus clouds observed
Temperature: 106.0 F (41.1 C)
Dew Point: 48.0 F (8.9 C)
Relative Humidity: 14%
Pressure (altimeter): 29.78 in. Hg (1008 hPa)
ob: KPHX 252251Z 30008KT 10SM FEW090 SCT160 SCT250 41/09 A2978 RMK AO2 SLP061 CB DSNT N-NE AND S AND W-NW T04110089
cycle: 23

Station Type Date Time Source
KPHX TAF 2022/06/25 21:33 UTC NOAA

TAF
AMD KPHX 252030Z 2521/2624 23006KT P6SM SCT150
FM252200 26011G18KT P6SM SCT150 BKN200
FM260000 07011KT P6SM VCSH FEW100 SCT150 BKN200
TEMPO 2600/2604 07015G27KT
FM260400 11009KT P6SM SCT120

Example: see airport list